Time;durP1;ratioP1;P1;durP2;ratioP2;P2;SDS_P1;SDS_P2;PMS_P1;PMS_P2;Temp;Humidity;BMP_temperature;BMP_pressure;BME280_temperature;BME280_humidity;BME280_pressure;Samples;Min_cycle;Max_cycle;Signal;HPM_P1;HPM_P2
2021/12/27 00:01:53;;;;;;;22.27;12.75;;;-0.60;99.90;;;;;;4964737;28;20039;-81
2021/12/27 00:04:19;;;;;;;21.95;12.35;;;-0.40;99.90;;;;;;4947056;28;20822;-81
2021/12/27 00:06:44;;;;;;;23.23;12.43;;;-0.70;99.90;;;;;;4947654;28;20050;-81
2021/12/27 00:09:10;;;;;;;25.20;12.73;;;-0.70;99.90;;;;;;4949085;28;20395;-81
2021/12/27 00:11:35;;;;;;;22.95;13.10;;;-0.60;99.90;;;;;;4961046;28;20085;-81
2021/12/27 00:14:01;;;;;;;23.30;12.05;;;-0.70;99.90;;;;;;4949370;28;20037;-81
2021/12/27 00:16:26;;;;;;;21.63;12.02;;;-0.70;99.90;;;;;;4949738;28;20050;-81
2021/12/27 00:18:52;;;;;;;21.13;11.65;;;-0.70;99.90;;;;;;4966725;28;20050;-81
2021/12/27 00:21:18;;;;;;;26.13;14.02;;;-0.80;99.90;;;;;;4949282;28;20073;-81
2021/12/27 00:23:43;;;;;;;22.20;12.38;;;-0.80;99.90;;;;;;4951143;28;20406;-81
2021/12/27 00:26:09;;;;;;;26.02;13.10;;;-0.80;99.90;;;;;;4946159;28;20475;-81
2021/12/27 00:28:35;;;;;;;23.52;12.98;;;-0.80;99.90;;;;;;4968316;28;20916;-81
2021/12/27 00:31:02;;;;;;;23.63;12.50;;;-0.90;99.90;;;;;;4948157;28;20475;-81
2021/12/27 00:33:28;;;;;;;26.88;14.23;;;-0.90;99.90;;;;;;4948029;28;20129;-81
2021/12/27 00:35:54;;;;;;;25.08;13.23;;;-0.90;99.90;;;;;;4949751;28;20133;-82
2021/12/27 00:38:19;;;;;;;22.50;12.60;;;-0.70;99.90;;;;;;4951652;28;20038;-81
2021/12/27 00:40:45;;;;;;;23.33;12.18;;;-1.00;99.90;;;;;;4946518;28;20483;-82
2021/12/27 00:43:11;;;;;;;24.58;14.02;;;-1.00;99.90;;;;;;4948113;28;20631;-81
2021/12/27 00:45:37;;;;;;;23.63;13.18;;;-0.90;99.90;;;;;;4948182;28;20042;-81
2021/12/27 00:48:03;;;;;;;22.38;13.25;;;-0.90;99.90;;;;;;4948658;28;20100;-81
2021/12/27 00:50:29;;;;;;;23.17;12.95;;;-0.90;99.90;;;;;;4946690;28;20442;-81
2021/12/27 00:52:55;;;;;;;23.30;11.85;;;-0.90;99.90;;;;;;4945760;28;20057;-81
2021/12/27 00:55:21;;;;;;;23.35;12.55;;;-0.90;99.90;;;;;;4967132;28;20402;-81
2021/12/27 00:57:47;;;;;;;26.98;13.48;;;-0.90;99.90;;;;;;4949535;28;20083;-82
2021/12/27 01:00:18;;;;;;;23.45;12.82;;;-0.90;99.90;;;;;;4951544;28;20046;-81
2021/12/27 01:02:45;;;;;;;21.10;12.25;;;-0.90;99.90;;;;;;4950389;28;20117;-81
2021/12/27 01:05:11;;;;;;;23.38;12.70;;;-0.90;99.90;;;;;;4949526;28;20046;-81
2021/12/27 01:07:37;;;;;;;21.30;12.13;;;-0.90;99.90;;;;;;4945987;28;20069;-81
2021/12/27 01:18:00;;;;;;;24.45;13.65;;;-0.80;99.90;;;;;;4944745;28;20065;-81
2021/12/27 01:20:26;;;;;;;25.77;12.13;;;-0.80;99.90;;;;;;4951089;28;20045;-81
2021/12/27 01:22:53;;;;;;;22.85;13.13;;;-0.80;99.90;;;;;;4951487;28;20046;-81
2021/12/27 01:25:20;;;;;;;25.10;12.82;;;-0.80;99.90;;;;;;4966350;28;20196;-82
2021/12/27 01:27:45;;;;;;;24.65;13.80;;;-0.10;99.90;;;;;;4948636;28;20045;-81
2021/12/27 01:30:15;;;;;;;26.00;14.65;;;-0.70;99.90;;;;;;4948274;28;20137;-81
2021/12/27 01:32:47;;;;;;;27.50;15.07;;;-0.70;99.90;;;;;;4966885;28;20054;-81
2021/12/27 01:35:14;;;;;;;23.48;12.48;;;-0.70;99.90;;;;;;4948415;28;20042;-82
2021/12/27 01:37:40;;;;;;;23.58;13.23;;;-0.70;99.90;;;;;;4967919;28;20492;-81
2021/12/27 01:40:07;;;;;;;23.98;13.35;;;-0.70;99.90;;;;;;4947495;28;20050;-82
2021/12/27 01:42:33;;;;;;;24.67;14.40;;;-0.70;99.90;;;;;;4951397;28;20089;-81
2021/12/27 01:44:58;;;;;;;24.77;13.43;;;-0.70;99.90;;;;;;4966339;28;20038;-81
2021/12/27 01:47:26;;;;;;;25.15;13.95;;;-0.70;99.90;;;;;;4951423;28;20054;-81
2021/12/27 01:49:52;;;;;;;24.92;13.68;;;-0.70;99.90;;;;;;4954576;28;20529;-81
2021/12/27 01:52:18;;;;;;;25.33;13.98;;;-0.70;99.90;;;;;;4952977;28;20078;-81
2021/12/27 01:54:43;;;;;;;25.27;13.85;;;-0.60;99.90;;;;;;4947585;28;20418;-82
2021/12/27 01:57:09;;;;;;;22.65;13.40;;;-0.70;99.90;;;;;;4950271;28;20058;-82
2021/12/27 01:59:35;;;;;;;22.63;12.65;;;-0.70;99.90;;;;;;4948138;28;20447;-82
2021/12/27 02:02:00;;;;;;;24.45;13.32;;;-0.20;99.90;;;;;;4969306;28;20058;-81
2021/12/27 02:04:26;;;;;;;22.85;13.68;;;-0.60;99.90;;;;;;4949957;28;20042;-82
2021/12/27 02:06:51;;;;;;;21.30;14.30;;;-0.50;99.90;;;;;;4953097;28;20043;-82
2021/12/27 02:09:20;;;;;;;24.05;13.40;;;-0.60;99.90;;;;;;4952976;28;20507;-82
2021/12/27 02:11:47;;;;;;;27.38;15.27;;;-0.60;99.90;;;;;;4947667;28;20061;-81
2021/12/27 02:14:12;;;;;;;24.20;13.48;;;-0.60;99.90;;;;;;4950273;28;20058;-82
2021/12/27 02:16:38;;;;;;;24.42;13.55;;;-0.60;99.90;;;;;;4951076;28;20043;-82
2021/12/27 02:19:04;;;;;;;23.10;14.15;;;-0.60;99.90;;;;;;4965538;28;20054;-82
2021/12/27 02:21:29;;;;;;;26.90;14.55;;;-0.60;99.90;;;;;;4949655;29;20101;-80
2021/12/27 02:23:57;;;;;;;25.70;13.90;;;-0.50;99.90;;;;;;4953313;28;20050;-80
2021/12/27 02:26:22;;;;;;;25.10;14.65;;;-0.40;99.90;;;;;;4950274;28;20182;-80
2021/12/27 02:28:48;;;;;;;27.23;15.27;;;-0.50;99.90;;;;;;4949991;28;20464;-80
2021/12/27 02:31:15;;;;;;;26.85;14.90;;;-0.50;99.90;;;;;;4970638;28;20070;-80
2021/12/27 02:33:42;;;;;;;24.42;14.43;;;-0.50;99.90;;;;;;4950433;28;20745;-80
2021/12/27 02:36:09;;;;;;;25.75;14.85;;;-0.50;99.90;;;;;;4964521;28;20502;-80
2021/12/27 02:38:39;;;;;;;31.20;15.30;;;-0.60;99.90;;;;;;4955224;28;20459;-80
2021/12/27 02:41:05;;;;;;;23.77;13.90;;;-0.50;99.90;;;;;;4949917;28;20122;-80
2021/12/27 02:43:32;;;;;;;25.08;14.65;;;-0.50;99.90;;;;;;4949355;28;20054;-80
2021/12/27 02:45:58;;;;;;;26.23;13.85;;;-0.50;99.90;;;;;;4950024;28;20484;-80
2021/12/27 02:48:28;;;;;;;26.33;15.88;;;-0.50;99.90;;;;;;4965987;28;20046;-80
2021/12/27 02:50:55;;;;;;;24.45;15.18;;;-0.40;99.90;;;;;;4946433;28;20039;-80
2021/12/27 02:53:23;;;;;;;23.10;13.63;;;-0.40;99.90;;;;;;4966335;28;20495;-80
2021/12/27 02:55:50;;;;;;;28.70;15.77;;;-0.30;99.90;;;;;;4955626;28;20125;-80
2021/12/27 02:58:16;;;;;;;25.65;14.75;;;-0.40;99.90;;;;;;4952149;28;20509;-80
2021/12/27 03:00:49;;;;;;;25.80;14.95;;;-0.40;99.90;;;;;;4947286;28;20051;-83
2021/12/27 03:03:15;;;;;;;26.42;15.07;;;-0.40;99.90;;;;;;4966836;28;20129;-80
2021/12/27 03:05:43;;;;;;;26.38;14.68;;;-0.40;99.90;;;;;;4946760;28;20126;-80
2021/12/27 03:08:14;;;;;;;28.05;15.38;;;-0.20;99.90;;;;;;4949387;28;20043;-80
2021/12/27 03:10:41;;;;;;;29.55;16.98;;;-0.40;99.90;;;;;;4951582;28;20415;-80
2021/12/27 03:13:07;;;;;;;28.10;15.65;;;-0.40;99.90;;;;;;4944538;29;20050;-80
2021/12/27 03:15:32;;;;;;;28.80;15.00;;;-0.30;99.90;;;;;;4948428;28;20391;-80
2021/12/27 03:17:58;;;;;;;30.88;15.88;;;-0.40;99.90;;;;;;4946588;28;20513;-80
2021/12/27 03:20:26;;;;;;;26.50;15.05;;;-0.40;99.90;;;;;;4965475;28;20047;-80
2021/12/27 03:22:52;;;;;;;27.95;15.95;;;-0.30;99.90;;;;;;4948095;28;20046;-80
2021/12/27 03:25:20;;;;;;;24.48;15.57;;;-0.30;99.90;;;;;;4947653;28;20038;-80
2021/12/27 03:27:46;;;;;;;24.70;14.55;;;-0.30;99.90;;;;;;4949908;28;20126;-80
2021/12/27 03:30:25;;;;;;;26.60;15.27;;;-0.30;99.90;;;;;;4953185;28;20039;-80
2021/12/27 03:32:51;;;;;;;28.63;15.85;;;-0.30;99.90;;;;;;4946873;28;20039;-80
2021/12/27 03:35:25;;;;;;;28.83;15.55;;;-0.30;99.90;;;;;;4949371;28;20410;-80
2021/12/27 03:37:52;;;;;;;31.20;17.35;;;-0.30;99.90;;;;;;4948852;28;20093;-80
2021/12/27 03:40:20;;;;;;;28.15;16.25;;;-0.30;99.90;;;;;;4950037;28;20478;-80
2021/12/27 03:42:50;;;;;;;28.88;15.43;;;-0.30;99.90;;;;;;4949345;28;20047;-81
2021/12/27 03:45:18;;;;;;;27.70;15.85;;;-0.30;99.90;;;;;;4950952;28;20758;-81
2021/12/27 03:47:43;;;;;;;25.27;15.65;;;-0.30;99.90;;;;;;4949285;28;20098;-80
2021/12/27 03:50:09;;;;;;;31.13;15.85;;;-0.30;99.90;;;;;;4950395;28;20046;-80
2021/12/27 03:52:37;;;;;;;30.38;15.85;;;-0.30;99.90;;;;;;4954204;28;20446;-80
2021/12/27 03:55:04;;;;;;;30.63;15.02;;;-0.30;99.90;;;;;;4953782;28;20053;-80
2021/12/27 03:57:32;;;;;;;27.67;15.15;;;-0.30;99.90;;;;;;4968889;28;20055;-80
2021/12/27 04:02:42;;;;;;;28.98;16.08;;;-0.20;99.90;;;;;;4949777;28;20066;-80
2021/12/27 04:05:09;;;;;;;27.15;15.68;;;-0.20;99.90;;;;;;4947359;28;20039;-80
2021/12/27 04:07:36;;;;;;;29.52;16.52;;;-0.20;99.90;;;;;;4953632;28;20053;-81
2021/12/27 04:10:04;;;;;;;28.92;16.08;;;-0.20;99.90;;;;;;4949458;28;20042;-80
2021/12/27 04:12:29;;;;;;;30.38;16.17;;;-0.20;99.90;;;;;;4946426;28;20537;-80
2021/12/27 04:14:55;;;;;;;26.83;15.68;;;-0.20;99.90;;;;;;4944659;28;20050;-80
2021/12/27 04:17:21;;;;;;;27.83;15.27;;;0.70;99.90;;;;;;4949271;28;20062;-81
2021/12/27 04:19:46;;;;;;;26.77;16.38;;;-0.20;99.90;;;;;;4966240;28;20055;-80
2021/12/27 04:22:12;;;;;;;28.20;16.20;;;-0.20;99.90;;;;;;4948843;28;20047;-81
2021/12/27 04:24:38;;;;;;;30.08;16.20;;;-0.20;99.90;;;;;;4964749;28;20482;-81
2021/12/27 04:27:03;;;;;;;32.65;17.08;;;-0.20;99.90;;;;;;4952681;28;20405;-81
2021/12/27 04:29:29;;;;;;;30.88;17.05;;;-0.10;99.90;;;;;;4951881;28;20043;-81
2021/12/27 04:31:55;;;;;;;26.20;14.90;;;-0.10;99.90;;;;;;4949104;28;20371;-81
2021/12/27 04:34:20;;;;;;;31.63;16.77;;;-0.10;99.90;;;;;;4964144;28;20047;-81
2021/12/27 04:36:46;;;;;;;30.02;16.67;;;-0.10;99.90;;;;;;4965472;28;20098;-81
2021/12/27 04:39:11;;;;;;;26.92;15.57;;;-0.10;99.90;;;;;;4967690;28;20426;-81
2021/12/27 04:41:38;;;;;;;28.58;17.05;;;-0.10;99.90;;;;;;4949009;28;20047;-81
2021/12/27 04:44:04;;;;;;;30.05;17.05;;;0.20;99.90;;;;;;4950730;28;20069;-81
2021/12/27 04:46:30;;;;;;;29.02;15.88;;;-0.10;99.90;;;;;;4951095;28;20471;-81
2021/12/27 04:48:56;;;;;;;29.63;16.00;;;-0.10;99.90;;;;;;4950163;28;20046;-81
2021/12/27 04:51:22;;;;;;;31.23;16.75;;;-0.10;99.90;;;;;;4949608;28;20054;-81
2021/12/27 04:53:48;;;;;;;29.02;16.67;;;0.00;99.90;;;;;;4969392;28;20035;-81
2021/12/27 04:56:14;;;;;;;33.17;16.75;;;0.00;99.90;;;;;;4949996;28;20049;-81
2021/12/27 04:58:40;;;;;;;30.48;15.50;;;0.10;99.90;;;;;;4964017;28;20042;-81
2021/12/27 05:01:05;;;;;;;30.40;16.95;;;0.00;99.90;;;;;;4949582;28;20512;-81
2021/12/27 05:03:31;;;;;;;30.67;16.10;;;0.00;99.90;;;;;;4949909;28;20043;-81
2021/12/27 05:05:57;;;;;;;27.98;15.18;;;0.00;99.90;;;;;;4949513;28;20047;-81
2021/12/27 05:08:22;;;;;;;28.42;16.05;;;1.20;99.90;;;;;;4944870;28;20039;-81
2021/12/27 05:10:48;;;;;;;31.23;16.95;;;0.00;99.90;;;;;;4944053;28;20443;-81
2021/12/27 05:13:14;;;;;;;29.23;17.23;;;-0.10;99.90;;;;;;4964517;28;20069;-81
2021/12/27 05:15:39;;;;;;;29.00;16.20;;;0.00;99.90;;;;;;4948929;28;20133;-81
2021/12/27 05:18:05;;;;;;;30.65;16.10;;;0.00;99.90;;;;;;4947007;28;20071;-80
2021/12/27 05:20:31;;;;;;;30.70;16.55;;;0.10;99.90;;;;;;4963979;28;20121;-82
2021/12/27 05:22:56;;;;;;;29.35;16.60;;;0.10;99.90;;;;;;4962168;28;20043;-83
2021/12/27 05:25:22;;;;;;;29.75;16.92;;;1.30;99.90;;;;;;4950198;28;20482;-82
2021/12/27 05:27:47;;;;;;;30.08;17.25;;;0.10;99.90;;;;;;4949141;28;20100;-82
2021/12/27 05:30:17;;;;;;;27.08;15.85;;;0.10;99.90;;;;;;4967467;28;20101;-80
2021/12/27 05:32:44;;;;;;;33.67;16.98;;;0.10;99.90;;;;;;4948892;28;20154;-80
2021/12/27 05:35:10;;;;;;;28.05;16.13;;;0.30;99.90;;;;;;4948648;28;20051;-80
2021/12/27 05:37:37;;;;;;;29.52;17.60;;;0.10;99.90;;;;;;4947355;28;20525;-82
2021/12/27 05:40:06;;;;;;;31.20;16.65;;;0.10;99.90;;;;;;4951049;28;20039;-82
2021/12/27 05:42:34;;;;;;;27.02;15.45;;;0.10;99.90;;;;;;4949301;28;20425;-81
2021/12/27 05:45:01;;;;;;;28.35;16.13;;;0.10;99.90;;;;;;4950789;28;20126;-80
2021/12/27 05:47:27;;;;;;;30.52;16.95;;;1.00;99.90;;;;;;4948437;28;20049;-80
2021/12/27 05:49:52;;;;;;;28.45;17.40;;;0.80;99.90;;;;;;4948677;28;20047;-80
2021/12/27 05:52:18;;;;;;;34.75;18.35;;;0.10;99.90;;;;;;4950819;28;20054;-82
2021/12/27 05:54:44;;;;;;;30.15;17.35;;;0.10;99.90;;;;;;4950891;28;20054;-81
2021/12/27 05:57:09;;;;;;;31.83;18.23;;;0.20;99.90;;;;;;4943701;28;20054;-82
2021/12/27 05:59:35;;;;;;;30.60;17.45;;;0.20;99.90;;;;;;4965361;28;20054;-83
2021/12/27 06:02:00;;;;;;;30.80;17.70;;;0.20;99.90;;;;;;4949352;28;20046;-80
2021/12/27 06:04:26;;;;;;;34.58;18.38;;;0.20;99.90;;;;;;4946408;28;20546;-80
2021/12/27 06:06:51;;;;;;;28.48;16.33;;;0.20;99.90;;;;;;4946123;29;20503;-81
2021/12/27 06:09:17;;;;;;;30.52;17.05;;;0.20;99.90;;;;;;4948292;28;20097;-80
2021/12/27 06:11:43;;;;;;;29.67;16.75;;;0.20;99.90;;;;;;4939400;28;20035;-81
2021/12/27 06:14:08;;;;;;;30.25;17.75;;;0.20;99.90;;;;;;4967705;28;20046;-81
2021/12/27 06:16:34;;;;;;;32.88;17.75;;;0.20;99.90;;;;;;4941463;29;20039;-80
2021/12/27 06:19:00;;;;;;;33.47;18.33;;;0.20;99.90;;;;;;4945646;28;20042;-81
2021/12/27 06:21:25;;;;;;;35.55;19.00;;;0.30;99.90;;;;;;4947025;28;20094;-81
2021/12/27 06:23:51;;;;;;;33.78;18.48;;;0.20;99.90;;;;;;4948859;28;20193;-81
2021/12/27 06:26:17;;;;;;;36.70;19.25;;;0.30;99.90;;;;;;4963052;28;20078;-81
2021/12/27 06:28:42;;;;;;;34.72;20.27;;;0.20;99.90;;;;;;4966179;28;20047;-81
2021/12/27 06:31:08;;;;;;;32.53;19.30;;;0.20;99.90;;;;;;4967227;28;20123;-81
2021/12/27 06:33:34;;;;;;;33.58;19.88;;;0.20;99.90;;;;;;4946435;28;20078;-83
2021/12/27 06:35:59;;;;;;;33.45;19.80;;;0.20;99.90;;;;;;4951500;28;20061;-83
2021/12/27 06:38:25;;;;;;;37.80;20.20;;;0.20;99.90;;;;;;4948665;28;20050;-83
2021/12/27 06:40:52;;;;;;;32.53;18.73;;;0.20;99.90;;;;;;4948853;28;20043;-83
2021/12/27 06:43:17;;;;;;;34.95;19.33;;;0.20;99.90;;;;;;4948786;28;20439;-83
2021/12/27 06:45:43;;;;;;;34.13;19.08;;;0.20;99.90;;;;;;4949000;28;20125;-83
2021/12/27 06:48:10;;;;;;;35.00;19.23;;;0.20;99.90;;;;;;4949865;28;20178;-81
2021/12/27 06:50:35;;;;;;;39.90;21.13;;;0.20;99.90;;;;;;4951022;28;20046;-81
2021/12/27 06:53:03;;;;;;;37.78;19.52;;;0.60;99.90;;;;;;4952243;28;20050;-83
2021/12/27 06:55:28;;;;;;;36.22;19.52;;;0.20;99.90;;;;;;4954625;28;20035;-83
2021/12/27 06:57:54;;;;;;;35.70;19.42;;;0.20;99.90;;;;;;4962111;28;20142;-83
2021/12/27 07:00:19;;;;;;;35.70;18.90;;;0.20;99.90;;;;;;4952103;28;20145;-83
2021/12/27 07:02:46;;;;;;;33.70;19.40;;;0.20;99.90;;;;;;4964353;28;20049;-83
2021/12/27 07:05:12;;;;;;;35.83;19.50;;;0.30;99.90;;;;;;4971289;28;20046;-83
2021/12/27 07:07:39;;;;;;;45.67;20.52;;;0.30;99.90;;;;;;4950826;28;20491;-83
2021/12/27 07:10:09;;;;;;;35.95;19.50;;;0.30;99.90;;;;;;4947061;28;20042;-83
2021/12/27 07:12:35;;;;;;;39.20;20.08;;;0.30;99.90;;;;;;4948373;28;20050;-84
2021/12/27 07:15:00;;;;;;;41.67;21.25;;;0.30;99.90;;;;;;4950025;28;20043;-83
2021/12/27 07:17:26;;;;;;;37.55;20.88;;;0.50;99.90;;;;;;4945049;28;20094;-83
2021/12/27 07:19:55;;;;;;;42.13;21.45;;;0.30;99.90;;;;;;4945504;28;20050;-84
2021/12/27 07:22:21;;;;;;;36.70;19.52;;;0.30;99.90;;;;;;4947355;28;20512;-84
2021/12/27 07:24:46;;;;;;;40.10;21.60;;;0.30;99.90;;;;;;4953390;28;20039;-85
2021/12/27 07:27:12;;;;;;;42.10;21.33;;;0.30;99.90;;;;;;4952024;28;20114;-82
2021/12/27 07:29:38;;;;;;;39.63;22.20;;;0.30;99.90;;;;;;4948594;28;20078;-83
2021/12/27 07:32:04;;;;;;;46.30;23.40;;;0.60;99.90;;;;;;4953441;28;20047;-83
2021/12/27 07:34:30;;;;;;;38.97;21.42;;;0.30;99.90;;;;;;4952297;28;20089;-82
2021/12/27 07:36:57;;;;;;;39.53;21.13;;;0.40;99.90;;;;;;4949592;28;20109;-82
2021/12/27 07:39:24;;;;;;;40.17;21.98;;;0.30;99.90;;;;;;4967412;28;20051;-82
2021/12/27 07:41:50;;;;;;;38.17;20.38;;;0.50;99.90;;;;;;4944059;28;20571;-83
2021/12/27 07:44:16;;;;;;;41.95;22.38;;;0.30;99.90;;;;;;4944543;28;20141;-83
2021/12/27 07:46:44;;;;;;;47.10;23.35;;;0.30;99.90;;;;;;4946363;28;20569;-84
2021/12/27 07:49:11;;;;;;;45.58;21.83;;;0.40;99.90;;;;;;4949135;28;20485;-83
2021/12/27 07:51:38;;;;;;;47.35;23.00;;;0.40;99.90;;;;;;4945816;28;20044;-84
2021/12/27 07:54:04;;;;;;;42.92;24.45;;;0.40;99.90;;;;;;4944556;28;20038;-81
2021/12/27 07:56:30;;;;;;;44.55;22.25;;;0.40;99.90;;;;;;4948502;28;20047;-81
2021/12/27 07:58:56;;;;;;;41.78;22.85;;;0.50;99.90;;;;;;4951158;28;20545;-82
2021/12/27 08:01:21;;;;;;;41.38;22.27;;;0.40;99.90;;;;;;4947864;28;20053;-82
2021/12/27 08:03:47;;;;;;;44.08;22.45;;;0.40;99.90;;;;;;4945923;28;21923;-82
2021/12/27 08:06:12;;;;;;;43.70;23.23;;;0.40;99.90;;;;;;4965632;28;20062;-81
2021/12/27 08:08:38;;;;;;;44.92;23.30;;;0.40;99.90;;;;;;4951034;28;20035;-82
2021/12/27 08:11:04;;;;;;;43.13;23.15;;;0.30;99.90;;;;;;4935784;28;20039;-83
2021/12/27 08:13:29;;;;;;;39.72;22.52;;;0.40;99.90;;;;;;4951166;28;20122;-82
2021/12/27 08:15:55;;;;;;;46.60;23.38;;;0.40;99.90;;;;;;4946316;28;20455;-82
2021/12/27 08:18:21;;;;;;;42.15;21.75;;;0.40;99.90;;;;;;4948893;28;20038;-82
2021/12/27 08:20:47;;;;;;;44.63;21.65;;;0.50;99.90;;;;;;4946842;28;20034;-82
2021/12/27 08:23:14;;;;;;;43.33;22.52;;;0.40;99.90;;;;;;4949493;28;20043;-83
2021/12/27 08:25:39;;;;;;;45.28;23.88;;;0.50;99.90;;;;;;4965577;28;20042;-83
2021/12/27 08:28:06;;;;;;;43.85;22.67;;;0.50;99.90;;;;;;4946468;28;20047;-82
2021/12/27 08:30:32;;;;;;;42.38;22.35;;;1.50;99.90;;;;;;4962173;28;20038;-82
2021/12/27 08:32:59;;;;;;;49.38;23.80;;;0.50;99.90;;;;;;4968441;28;20380;-81
2021/12/27 08:35:26;;;;;;;44.05;22.50;;;0.50;99.90;;;;;;4967418;28;20051;-83
2021/12/27 08:37:52;;;;;;;47.75;22.23;;;0.50;99.90;;;;;;4966590;28;20101;-83
2021/12/27 08:40:18;;;;;;;44.22;24.08;;;0.50;99.90;;;;;;4966072;28;20109;-80
2021/12/27 08:42:44;;;;;;;50.08;23.80;;;0.50;99.90;;;;;;4964437;28;20474;-80
2021/12/27 08:45:11;;;;;;;47.58;22.20;;;0.50;99.90;;;;;;4939770;28;20047;-83
2021/12/27 08:47:37;;;;;;;42.42;21.35;;;0.60;99.90;;;;;;4942306;28;20383;-83
2021/12/27 08:50:05;;;;;;;45.20;21.85;;;0.60;99.90;;;;;;4942613;28;20137;-82
2021/12/27 08:52:32;;;;;;;47.20;22.25;;;0.60;99.90;;;;;;4941738;28;20047;-81
2021/12/27 08:55:01;;;;;;;48.30;22.75;;;0.60;99.90;;;;;;4956077;28;20487;-81
2021/12/27 08:57:27;;;;;;;52.95;23.38;;;0.60;99.90;;;;;;4950089;28;20099;-83
2021/12/27 08:59:52;;;;;;;44.33;23.83;;;0.60;99.90;;;;;;4965233;28;20077;-83
2021/12/27 09:02:18;;;;;;;43.58;22.52;;;0.60;99.90;;;;;;4949598;28;20046;-83
2021/12/27 09:04:43;;;;;;;55.95;24.40;;;1.40;99.90;;;;;;4943783;28;20050;-83
2021/12/27 09:07:09;;;;;;;47.65;23.02;;;0.70;99.90;;;;;;4948420;28;20503;-84
2021/12/27 09:09:35;;;;;;;49.33;23.67;;;0.70;99.90;;;;;;4944009;28;20047;-83
2021/12/27 09:12:01;;;;;;;48.10;22.83;;;0.70;99.90;;;;;;4942497;28;20043;-83
2021/12/27 09:14:26;;;;;;;44.97;23.35;;;0.70;99.90;;;;;;4946377;28;20051;-83
2021/12/27 09:16:52;;;;;;;48.92;23.73;;;0.80;99.90;;;;;;4947489;28;20054;-83
2021/12/27 09:19:17;;;;;;;49.05;23.75;;;0.80;99.90;;;;;;4960945;28;21747;-81
2021/12/27 09:21:43;;;;;;;53.72;23.85;;;0.80;99.90;;;;;;4961762;28;20102;-82
2021/12/27 09:24:09;;;;;;;51.58;23.52;;;0.80;99.90;;;;;;4946828;28;20047;-82
2021/12/27 09:26:35;;;;;;;57.35;24.45;;;0.80;99.90;;;;;;4947908;28;20047;-83
2021/12/27 09:29:01;;;;;;;65.95;27.42;;;0.80;99.90;;;;;;4958942;28;20090;-83
2021/12/27 09:31:27;;;;;;;63.30;25.42;;;0.80;99.90;;;;;;4967998;28;20074;-85
2021/12/27 09:33:52;;;;;;;53.90;24.98;;;0.80;99.90;;;;;;4963339;28;20459;-83
2021/12/27 09:36:18;;;;;;;62.10;25.45;;;0.80;99.90;;;;;;4960379;28;20051;-82
2021/12/27 09:38:45;;;;;;;61.85;26.30;;;0.80;99.90;;;;;;4964361;28;20086;-83
2021/12/27 09:41:14;;;;;;;66.72;26.13;;;1.00;99.90;;;;;;4964968;28;20050;-83
2021/12/27 09:43:40;;;;;;;62.22;25.77;;;0.80;99.90;;;;;;4964734;28;20149;-82
2021/12/27 09:46:06;;;;;;;57.85;25.42;;;0.80;99.90;;;;;;4963975;28;20039;-82
2021/12/27 09:48:34;;;;;;;59.53;27.05;;;0.90;99.90;;;;;;4962481;28;20054;-82
2021/12/27 09:51:00;;;;;;;68.22;27.38;;;0.90;99.90;;;;;;4945893;28;20499;-82
2021/12/27 09:53:25;;;;;;;59.80;25.63;;;0.80;99.90;;;;;;4947608;28;20038;-83
2021/12/27 09:55:51;;;;;;;67.22;27.67;;;0.90;99.90;;;;;;4948217;28;20054;-83
2021/12/27 09:58:17;;;;;;;73.32;28.73;;;0.90;99.90;;;;;;4952182;28;20061;-84
2021/12/27 10:00:43;;;;;;;71.57;27.65;;;0.90;99.90;;;;;;4948825;28;20062;-84
2021/12/27 10:03:09;;;;;;;91.22;29.52;;;0.90;99.90;;;;;;4970337;28;20047;-85
2021/12/27 10:05:36;;;;;;;85.50;29.70;;;0.90;99.90;;;;;;4950054;28;20042;-84
2021/12/27 10:08:02;;;;;;;76.10;29.40;;;0.90;99.90;;;;;;4971939;28;20921;-84
2021/12/27 10:10:30;;;;;;;73.75;29.73;;;0.90;99.90;;;;;;4949058;28;20090;-82
2021/12/27 10:12:55;;;;;;;76.57;29.30;;;1.00;99.90;;;;;;4967293;28;20086;-85
2021/12/27 10:15:31;;;;;;;71.45;28.85;;;1.00;99.90;;;;;;4951538;28;20047;-87
2021/12/27 10:17:56;;;;;;;93.82;31.90;;;1.00;99.90;;;;;;4947831;28;20039;-83
2021/12/27 10:20:26;;;;;;;76.95;30.02;;;1.00;99.90;;;;;;4973839;28;20098;-84
2021/12/27 10:22:54;;;;;;;79.78;28.48;;;1.00;99.90;;;;;;4967124;28;20848;-85
2021/12/27 10:25:21;;;;;;;84.72;29.17;;;1.00;99.90;;;;;;4970436;28;20133;-89
2021/12/27 10:27:49;;;;;;;80.65;28.35;;;1.10;99.90;;;;;;4970633;28;20106;-83
2021/12/27 10:30:18;;;;;;;91.53;30.35;;;1.10;99.90;;;;;;4948580;28;20042;-83
2021/12/27 10:32:59;;;;;;;98.00;30.08;;;1.10;99.90;;;;;;4952736;28;20085;-87
2021/12/27 10:35:33;;;;;;;102.15;31.25;;;1.20;99.90;;;;;;4952317;28;20061;-86
2021/12/27 10:38:12;;;;;;;79.88;27.30;;;1.20;99.90;;;;;;4949756;28;20066;-82
2021/12/27 10:40:37;;;;;;;94.55;31.58;;;1.20;99.90;;;;;;4951790;28;20407;-81
2021/12/27 10:43:04;;;;;;;88.85;30.92;;;1.30;99.90;;;;;;4969299;28;20049;-80
2021/12/27 10:45:30;;;;;;;96.90;31.08;;;1.20;99.90;;;;;;4966112;28;20047;-77
2021/12/27 10:48:02;;;;;;;109.18;32.10;;;1.30;99.90;;;;;;4967212;28;20383;-78
2021/12/27 10:50:35;;;;;;;86.75;30.88;;;1.30;99.90;;;;;;4969652;28;20043;-77
2021/12/27 10:53:01;;;;;;;98.13;30.98;;;1.30;99.90;;;;;;4967391;28;20042;-78
2021/12/27 10:55:35;;;;;;;99.85;32.40;;;1.40;99.90;;;;;;4970311;28;20099;-78
2021/12/27 10:58:22;;;;;;;111.78;32.65;;;1.40;99.90;;;;;;4945740;28;20051;-77
2021/12/27 11:00:58;;;;;;;109.35;33.53;;;1.40;99.90;;;;;;4949158;28;20059;-78
2021/12/27 11:03:28;;;;;;;108.93;32.38;;;1.40;99.90;;;;;;4952936;28;20050;-79
2021/12/27 11:05:55;;;;;;;101.97;31.73;;;1.40;99.90;;;;;;4938863;28;20047;-78
2021/12/27 11:08:20;;;;;;;96.97;32.00;;;1.40;99.90;;;;;;4948739;28;22002;-78
2021/12/27 11:10:46;;;;;;;127.20;33.08;;;1.50;99.90;;;;;;4948416;28;20035;-77
2021/12/27 11:13:12;;;;;;;113.93;31.65;;;1.50;99.90;;;;;;4956761;28;20074;-77
2021/12/27 11:15:42;;;;;;;115.90;34.63;;;1.50;99.90;;;;;;4946474;28;20145;-86
2021/12/27 11:18:12;;;;;;;135.00;37.03;;;1.50;99.90;;;;;;4943487;28;20543;-78
2021/12/27 11:20:43;;;;;;;122.25;34.13;;;1.50;99.90;;;;;;4943043;28;20054;-80
2021/12/27 11:23:11;;;;;;;108.20;33.28;;;1.60;99.90;;;;;;4946987;28;20045;-80
2021/12/27 11:25:39;;;;;;;119.05;32.97;;;1.60;99.90;;;;;;4964676;28;20417;-79
2021/12/27 11:28:23;;;;;;;124.15;33.25;;;1.60;99.90;;;;;;4965653;28;20049;-81
2021/12/27 11:30:52;;;;;;;142.63;35.28;;;1.80;99.90;;;;;;4965884;28;20050;-80
2021/12/27 11:33:20;;;;;;;114.57;34.38;;;1.60;99.90;;;;;;4967382;28;20042;-80
2021/12/27 11:35:55;;;;;;;130.90;34.75;;;1.60;99.90;;;;;;4967603;28;20492;-79
2021/12/27 11:38:34;;;;;;;147.88;36.58;;;1.60;99.90;;;;;;4961106;28;20102;-79
2021/12/27 11:41:01;;;;;;;135.52;35.45;;;1.60;99.90;;;;;;4963097;28;20042;-80
2021/12/27 11:44:06;;;;;;;149.23;36.63;;;1.70;99.90;;;;;;4962737;28;20047;-80
2021/12/27 11:46:52;;;;;;;144.95;34.95;;;1.70;99.90;;;;;;4964659;28;20050;-80
2021/12/27 11:49:33;;;;;;;137.90;37.85;;;1.70;99.90;;;;;;4964750;28;20094;-80
2021/12/27 11:52:24;;;;;;;139.60;35.38;;;1.70;99.90;;;;;;4967371;28;20038;-80
2021/12/27 11:54:54;;;;;;;127.93;34.35;;;1.70;99.90;;;;;;4949017;28;20081;-79
2021/12/27 11:57:45;;;;;;;133.80;36.83;;;1.70;99.90;;;;;;4952694;28;20093;-80
2021/12/27 12:00:34;;;;;;;129.23;37.05;;;1.70;99.90;;;;;;4968003;28;20046;-80
2021/12/27 12:03:05;;;;;;;134.02;35.10;;;1.80;99.90;;;;;;4952769;28;20039;-79
2021/12/27 12:05:42;;;;;;;122.47;36.15;;;1.70;99.90;;;;;;4945870;28;20043;-80
2021/12/27 12:08:09;;;;;;;145.13;37.42;;;1.80;99.90;;;;;;4951120;28;20085;-78
2021/12/27 12:10:37;;;;;;;155.60;38.15;;;1.70;99.90;;;;;;4954400;28;20057;-77
2021/12/27 12:13:25;;;;;;;155.10;38.10;;;0.70;99.90;;;;;;4964318;28;20058;-77
2021/12/27 12:16:01;;;;;;;142.93;37.53;;;1.80;99.90;;;;;;4949893;28;20060;-78
2021/12/27 12:18:29;;;;;;;122.32;34.67;;;1.80;99.90;;;;;;4948626;28;20142;-79
2021/12/27 12:20:54;;;;;;;136.35;33.67;;;1.80;99.90;;;;;;4965394;28;20149;-79
2021/12/27 12:23:22;;;;;;;133.52;38.22;;;1.80;99.90;;;;;;4965533;28;20121;-81
2021/12/27 12:25:57;;;;;;;109.88;33.13;;;1.90;99.90;;;;;;4967427;28;20049;-81
2021/12/27 12:28:23;;;;;;;135.80;36.08;;;1.90;99.90;;;;;;4966777;28;20077;-79
2021/12/27 12:30:51;;;;;;;140.23;37.53;;;1.90;99.90;;;;;;4965755;28;21224;-77
2021/12/27 12:33:28;;;;;;;141.40;35.22;;;1.90;99.90;;;;;;4949164;28;20050;-76
2021/12/27 12:36:04;;;;;;;148.00;36.78;;;1.90;99.90;;;;;;4949868;28;20459;-76
2021/12/27 12:38:32;;;;;;;129.57;32.55;;;1.90;99.90;;;;;;4964594;28;20051;-76
2021/12/27 12:41:17;;;;;;;130.95;35.58;;;1.90;99.90;;;;;;4946101;28;20078;-76
2021/12/27 12:43:51;;;;;;;;;;;1.90;99.90;;;;;;4947600;28;20502;-76
2021/12/27 12:46:24;;;;;;;139.55;34.67;;;1.90;99.90;;;;;;4947666;28;20386;-76